Date,TemperatureHighF,TemperatureAvgF,TemperatureLowF,DewpointHighF,DewpointAvgF,DewpointLowF,HumidityHigh,HumidityAvg,HumidityLow,PressureMaxIn,PressureMinIn,WindSpeedMaxMPH,WindSpeedAvgMPH,GustSpeedMaxMPH,PrecipitationSumIn
2013-1-1,33.6,27.4,16.0,27.5,16.3,-2.9,87,63,34,29.87,29.63,10,4,20,0.00
2013-1-2,25.3,18.3,8.0,12.6,6.4,-3.2,75,60,46,30.04,29.85,9,4,21,0.00
2013-1-3,21.1,10.8,3.0,5.9,0.5,-5.1,76,63,40,30.08,29.93,5,0,10,0.00
2013-1-4,35.3,27.3,14.8,25.3,20.1,5.4,88,74,44,29.93,29.74,4,2,10,0.01
2013-1-5,35.8,30.6,22.2,25.4,19.8,15.0,84,65,43,30.23,29.78,9,3,23,0.00
2013-1-6,38.8,29.8,22.0,27.9,24.8,17.3,95,81,52,30.18,29.90,4,1,10,0.01
2013-1-7,32.6,28.3,22.0,28.6,24.5,12.7,100,86,50,30.36,29.91,5,2,8,0.00
2013-1-8,43.0,33.7,27.3,28.7,26.6,24.5,94,76,51,30.31,30.18,7,2,14,0.00
2013-1-9,40.0,33.9,25.8,34.3,28.5,17.0,94,81,43,30.36,29.91,5,2,12,0.01
2013-1-10,42.3,38.1,29.2,31.2,25.8,13.2,88,61,31,30.48,29.93,11,5,25,0.00
2013-1-11,38.4,32.7,25.6,37.7,28.4,16.9,97,84,45,30.47,30.20,6,2,11,0.07
2013-1-12,41.8,39.3,37.6,41.1,38.7,27.2,100,98,61,30.20,30.09,6,2,13,0.01
2013-1-13,45.8,42.1,39.5,45.8,42.1,39.4,100,100,99,30.12,29.94,5,2,10,0.00
2013-1-14,57.8,47.6,37.6,50.3,41.0,27.0,100,79,47,30.18,29.83,7,3,14,0.00
2013-1-15,39.2,34.9,30.8,29.3,26.7,16.6,90,72,43,30.27,30.18,3,1,6,0.00
2013-1-16,32.2,31.0,29.0,32.2,29.3,15.1,100,94,53,30.21,29.78,3,0,4,0.00
2013-1-17,39.1,31.2,25.5,33.1,24.8,8.3,100,79,37,30.07,29.77,7,2,14,0.40
2013-1-18,25.0,18.7,13.0,12.7,1.0,-12.0,61,46,23,30.39,30.02,8,3,20,0.00
2013-1-19,42.8,28.9,22.2,27.2,16.8,8.8,68,60,49,30.31,29.87,6,4,13,0.04
2013-1-20,50.0,42.1,29.2,32.5,28.9,7.0,81,61,29,29.82,29.46,9,5,20,0.04
2013-1-21,27.5,24.4,20.4,19.3,9.7,-3.8,86,55,30,30.03,29.78,11,2,24,0.00
2013-1-22,24.1,20.7,13.7,19.2,13.7,-4.2,84,75,34,30.02,29.71,8,3,13,0.00
2013-1-23,10.5,6.8,2.2,0.8,-9.1,-24.6,72,48,24,30.10,30.00,10,2,20,0.00
2013-1-24,15.6,6.8,0.2,-4.9,-9.1,-21.9,62,48,19,30.13,29.98,10,2,22,0.00
2013-1-25,20.8,14.7,6.1,6.6,-2.0,-14.4,66,48,21,30.21,30.03,10,3,23,0.00
2013-1-26,24.4,16.9,11.6,13.2,4.4,-4.3,89,60,36,30.15,29.96,10,3,18,0.00
2013-1-27,28.3,19.0,12.8,5.2,1.2,-17.3,65,47,16,30.40,30.14,9,4,17,0.00
2013-1-28,26.5,21.5,14.8,24.8,9.2,-8.8,100,62,33,30.40,30.01,3,1,6,0.00
2013-1-29,34.7,28.9,23.7,31.2,26.4,11.2,100,90,47,30.16,30.01,3,0,6,0.08
2013-1-30,53.6,41.6,31.2,53.3,41.4,31.2,100,99,63,30.12,29.43,7,3,13,0.36
2013-1-31,56.7,42.9,30.8,56.0,32.9,13.3,100,70,44,29.49,28.89,14,8,35,0.22
2013-2-1,31.8,27.2,18.2,19.0,10.9,-6.2,73,50,22,30.02,29.49,9,5,20,0.00
2013-2-2,28.7,23.7,14.6,14.1,9.2,5.7,69,54,40,30.19,30.01,6,3,12,0.00
2013-2-3,28.4,25.1,20.1,21.0,18.4,13.1,96,76,58,30.01,29.68,6,2,10,0.00
2013-2-4,29.9,24.8,20.2,18.1,9.6,3.2,77,53,36,29.86,29.66,10,5,21,0.00
2013-2-5,28.6,21.8,12.9,21.3,8.5,-3.8,76,57,35,30.01,29.86,6,2,10,0.00
2013-2-6,35.4,26.8,21.2,23.6,17.7,-1.3,97,71,35,30.26,29.89,8,2,16,0.02
2013-2-7,26.8,21.8,14.8,15.0,2.0,-2.5,63,42,29,30.49,30.26,6,2,15,0.00
2013-2-8,28.6,18.8,14.9,28.6,17.5,13.1,100,95,68,30.44,29.68,14,7,34,0.00
2013-2-9,21.4,17.6,13.2,18.9,13.2,4.9,97,83,51,30.11,29.55,15,8,34,0.00
2013-2-10,36.0,21.6,9.8,19.1,8.6,1.8,93,59,31,30.34,30.12,6,2,13,0.00
2013-2-11,37.1,27.6,15.6,37.1,26.2,13.8,100,94,66,30.31,29.57,8,2,15,2.54
2013-2-12,42.9,37.6,32.1,33.3,29.5,15.8,100,73,42,29.79,29.53,8,3,18,0.00
2013-2-13,41.9,33.4,0.0,27.6,24.5,13.3,90,70,45,29.83,29.69,5,2,10,0.00
2013-2-14,41.5,34.6,29.4,29.2,24.1,10.4,82,66,40,29.95,29.67,5,2,10,0.00
2013-2-15,44.0,34.6,27.2,35.7,29.7,20.5,92,82,46,29.96,29.86,8,3,14,0.00
2013-2-16,38.8,33.7,29.4,33.1,29.1,17.0,98,83,49,29.91,29.70,8,3,13,0.01
2013-2-17,30.1,21.9,16.4,21.7,13.2,4.5,96,71,46,29.70,29.27,14,8,30,0.01
2013-2-18,31.9,22.5,12.9,8.1,3.5,-15.5,65,46,14,30.04,29.52,15,8,29,0.00
2013-2-19,39.2,31.6,22.0,39.2,20.0,2.9,100,64,38,30.09,29.53,13,4,20,0.50
2013-2-20,37.8,33.2,27.4,37.8,25.3,14.7,100,73,52,29.68,29.45,8,4,17,0.01
2013-2-21,30.6,26.4,22.0,19.5,14.5,1.9,70,60,34,30.12,29.67,10,5,18,0.00
2013-2-22,37.4,30.1,21.9,27.8,21.6,9.2,91,71,36,30.35,30.12,8,2,13,0.00
2013-2-23,37.4,33.8,29.0,34.6,30.2,19.7,98,87,49,30.30,29.93,10,3,18,0.06
2013-2-24,35.6,32.7,29.1,35.5,32.7,29.1,100,100,98,29.93,29.70,8,4,13,0.22
2013-2-25,38.2,31.9,25.5,32.0,29.3,12.9,100,90,48,30.20,29.89,4,1,6,0.31
2013-2-26,39.6,34.2,29.2,35.2,31.3,21.7,100,89,65,30.31,30.16,6,2,15,0.00
2013-2-27,40.1,36.5,33.1,37.2,34.6,23.4,100,93,65,30.17,29.60,14,8,27,1.13
2013-2-28,44.4,36.5,32.1,36.9,34.0,21.7,100,91,43,29.60,29.50,9,3,14,0.01
2013-3-1,38.6,34.3,30.9,32.6,30.1,18.2,99,85,44,29.65,29.51,7,3,13,0.00
2013-3-2,45.3,36.1,31.2,32.9,30.2,27.9,100,80,53,29.64,29.57,7,2,9,0.00
2013-3-3,38.6,34.7,30.8,35.5,31.7,26.3,100,89,74,29.61,29.53,6,2,13,0.13
2013-3-4,36.4,32.5,29.0,27.4,24.7,13.2,79,72,50,29.68,29.52,9,5,21,0.00
2013-3-5,42.6,35.8,29.6,34.3,29.5,22.9,94,78,63,30.05,29.68,7,3,13,0.00
2013-3-6,37.3,34.6,31.3,35.5,33.1,23.3,100,94,71,30.14,30.04,12,8,23,0.11
2013-3-7,32.9,31.5,29.2,31.5,28.8,26.2,99,89,77,30.11,29.99,11,7,22,0.02
2013-3-8,42.8,34.5,27.3,30.3,26.0,21.2,100,75,44,30.13,29.93,11,7,19,0.12
2013-3-9,40.9,35.3,27.4,30.9,25.8,21.0,100,69,52,30.33,30.12,9,4,16,0.00
2013-3-10,39.5,31.7,24.2,32.7,28.7,24.2,100,89,70,30.39,30.28,7,2,12,0.00
2013-3-11,42.2,38.3,32.9,39.4,35.9,32.3,97,91,79,30.27,30.13,5,4,10,0.00
2013-3-12,48.2,41.4,38.5,48.2,41.3,38.5,100,100,97,30.13,29.71,8,5,17,0.11
2013-3-13,51.3,43.1,34.3,45.2,36.4,24.5,100,80,49,29.74,29.66,6,3,13,0.00
2013-3-14,38.0,30.9,22.9,27.4,20.4,-2.2,82,65,32,29.76,29.64,10,4,22,0.00
2013-3-15,40.8,26.6,19.4,31.4,12.5,5.9,100,57,34,29.80,29.60,8,5,18,0.00
2013-3-16,35.4,31.1,26.8,27.6,20.4,13.5,92,66,43,29.84,29.65,5,3,11,0.01
2013-3-17,37.0,28.7,23.0,21.3,10.1,2.5,81,46,33,30.28,29.86,8,4,16,0.00
2013-3-18,33.6,27.1,17.3,26.4,15.6,3.0,75,62,40,30.42,30.24,6,3,12,0.00
2013-3-19,33.1,31.0,25.5,33.1,30.4,25.5,100,97,88,30.21,29.64,12,6,21,0.00
2013-3-20,36.8,31.3,23.5,29.7,25.3,23.5,100,79,63,29.75,29.64,7,4,14,0.20
2013-3-21,37.1,29.9,25.4,29.1,24.1,21.9,96,79,58,29.75,29.59,5,2,8,0.12
2013-3-22,40.1,34.1,28.2,29.6,23.6,19.7,95,66,46,29.67,29.56,6,2,12,0.03
2013-3-23,41.4,32.9,26.7,24.6,22.5,20.1,79,66,44,29.69,29.57,10,5,23,0.00
2013-3-24,45.9,37.4,32.2,32.7,27.3,24.1,89,67,46,29.77,29.69,6,4,15,0.00
2013-3-25,39.3,34.3,0.0,34.2,31.0,26.9,95,84,77,29.74,29.54,9,5,16,0.00
2013-3-26,50.4,39.9,33.6,32.4,25.9,22.8,88,59,34,29.73,29.53,6,4,10,0.00
2013-3-27,53.1,41.7,32.5,36.3,29.2,24.2,93,63,37,29.84,29.70,5,3,10,0.00
2013-3-28,46.4,39.2,34.9,37.6,36.0,31.2,100,88,55,29.96,29.84,4,3,7,0.02
2013-3-29,56.2,42.9,34.6,37.9,34.4,30.1,93,75,39,29.99,29.93,6,3,13,0.00
2013-3-30,51.5,46.8,35.0,47.9,37.2,31.7,92,69,47,30.06,29.98,7,4,13,0.00
2013-3-31,48.6,40.3,30.5,39.7,34.1,25.9,95,79,44,30.09,29.80,8,4,15,0.00
2013-4-1,56.4,42.0,34.5,44.3,32.1,15.8,100,70,44,29.72,29.50,9,5,18,0.13
2013-4-2,38.6,32.9,30.0,17.4,15.5,13.2,55,48,36,29.85,29.72,8,4,16,0.00
2013-4-3,44.8,36.0,30.4,20.7,14.9,10.4,60,43,25,30.04,29.84,9,5,16,0.00
2013-4-4,54.5,39.3,32.0,34.7,20.5,16.0,77,48,24,30.21,29.98,8,4,15,0.00
2013-4-5,50.5,42.8,37.7,40.1,29.2,24.1,77,58,41,29.95,29.63,11,4,20,0.00
2013-4-6,43.4,37.3,30.4,21.2,12.5,7.8,55,37,23,30.30,29.86,10,5,18,0.00
2013-4-7,48.8,38.8,26.7,39.1,30.7,19.9,85,72,63,30.29,29.95,12,4,20,0.00
2013-4-8,60.8,48.7,42.0,41.6,39.9,38.4,95,73,43,30.09,29.90,5,3,13,0.00
2013-4-9,62.6,47.0,42.3,49.5,42.7,40.3,98,86,55,30.08,29.85,8,3,16,0.05
2013-4-10,49.1,45.1,42.9,46.9,44.3,41.8,100,97,90,29.96,29.85,6,2,10,0.31
2013-4-11,47.2,43.7,42.1,43.9,39.5,30.7,100,85,63,30.11,29.84,6,2,10,0.08
2013-4-12,41.4,37.0,35.4,37.1,32.4,26.8,100,84,58,30.17,29.83,9,7,17,0.13
2013-4-13,45.2,40.3,33.6,40.0,38.2,33.6,100,92,79,29.89,29.76,9,4,13,0.04
2013-4-14,60.7,46.0,38.2,40.8,33.3,31.5,99,68,48,30.16,29.88,8,2,13,0.00
2013-4-15,50.8,41.6,32.3,41.3,37.4,31.8,97,85,53,30.36,30.16,9,4,13,0.00
2013-4-16,55.6,46.4,39.7,50.6,42.4,37.0,93,86,72,30.37,30.00,10,5,20,0.00
2013-4-17,64.4,54.0,43.8,53.0,40.6,32.8,88,63,31,30.30,29.98,6,3,14,0.00
2013-4-18,50.0,45.6,34.9,43.4,40.3,31.9,91,81,63,30.42,30.14,8,5,15,0.00
2013-4-19,60.7,52.3,45.8,59.6,50.7,43.4,100,94,83,30.14,29.63,9,5,18,0.00
2013-4-20,60.2,52.1,43.2,60.2,41.1,23.5,100,69,40,30.15,29.57,9,4,16,0.33
2013-4-21,50.7,41.6,34.4,33.3,26.6,20.9,93,56,36,30.64,30.15,8,4,16,0.00
2013-4-22,48.4,40.8,32.5,37.2,32.9,26.7,95,74,56,30.75,30.58,9,4,19,0.00
2013-4-23,41.1,39.9,37.7,41.1,38.4,32.0,100,94,77,30.54,30.13,9,5,18,0.05
2013-4-24,62.6,48.7,40.7,53.7,46.2,40.7,100,91,70,30.13,29.78,8,5,16,0.01
2013-4-25,65.3,55.2,46.5,52.3,39.5,28.5,97,60,30,30.24,29.78,8,4,16,0.01
2013-4-26,53.3,47.5,40.1,41.5,35.4,27.9,100,63,46,30.41,30.24,8,4,14,0.00
2013-4-27,55.8,45.9,36.7,45.3,41.2,36.7,100,84,53,30.39,30.28,7,3,10,0.00
2013-4-28,57.2,47.5,37.7,46.5,42.6,37.7,100,84,63,30.32,30.22,8,3,11,0.00
2013-4-29,57.4,49.4,42.6,50.1,44.3,39.4,99,82,67,30.24,30.19,8,2,12,0.00
2013-4-30,59.2,49.6,39.7,47.3,42.6,36.1,99,77,53,30.36,30.21,7,2,11,0.00
2013-5-1,56.7,48.0,36.9,49.9,44.0,36.9,100,86,67,30.45,30.35,8,2,11,0.00
2013-5-2,62.7,48.3,40.8,50.2,43.8,40.1,100,85,56,30.47,30.37,12,2,21,0.00
2013-5-3,54.2,46.8,39.5,45.2,42.0,38.5,99,83,67,30.51,30.35,8,3,14,0.00
2013-5-4,54.3,46.3,38.2,46.6,42.0,38.2,100,85,65,30.36,30.31,7,3,12,0.00
2013-5-5,54.3,45.5,34.9,46.0,41.3,34.9,100,86,62,30.32,30.25,9,3,14,0.00
2013-5-6,53.5,45.2,36.2,48.4,44.1,36.2,100,96,82,30.27,30.15,9,3,13,0.00
2013-5-7,61.0,51.9,42.6,54.5,49.9,42.6,100,93,75,30.15,30.09,7,2,12,0.01
2013-5-8,63.8,55.6,49.7,59.0,54.3,49.7,100,96,83,30.22,30.07,6,2,11,0.00
2013-5-9,61.3,55.1,53.1,59.3,54.9,53.1,100,99,90,30.07,29.89,6,2,9,0.96
2013-5-10,60.8,54.7,52.6,58.0,54.3,52.6,100,98,89,29.94,29.88,7,2,11,0.01
2013-5-11,68.0,58.6,51.9,63.1,57.4,51.9,100,96,82,29.89,29.68,7,3,13,0.08
2013-5-12,71.4,58.2,50.4,61.3,52.1,30.9,100,82,46,29.75,29.54,8,2,14,0.07
2013-5-13,58.7,49.9,42.0,38.3,33.7,30.8,72,54,39,29.99,29.75,5,3,13,0.00
2013-5-14,61.9,49.2,39.3,43.9,37.5,30.8,87,66,33,30.01,29.92,3,1,13,0.00
2013-5-15,56.8,48.9,38.1,50.6,44.5,37.7,100,86,52,30.01,29.64,9,2,18,0.02
2013-5-16,80.2,63.1,46.8,53.4,46.3,41.4,100,62,26,29.79,29.59,7,2,17,0.00
2013-5-17,64.9,55.7,50.0,49.2,45.7,41.5,84,69,52,30.18,29.79,6,2,10,0.00
2013-5-18,62.0,52.9,43.8,51.3,48.1,43.8,100,84,53,30.28,30.19,8,3,13,0.00
2013-5-19,57.4,50.5,39.2,51.9,48.9,33.8,100,94,80,30.34,30.22,6,2,14,0.01
2013-5-20,72.2,57.2,49.7,64.6,55.7,49.7,100,95,74,30.22,29.91,5,2,10,0.12
2013-5-21,57.8,53.0,48.7,56.5,52.5,48.7,100,98,90,30.05,29.93,6,3,13,0.00
2013-5-22,56.0,51.8,49.0,54.0,51.4,49.0,100,98,89,30.03,29.86,6,2,13,1.00
2013-5-23,63.4,56.0,50.0,62.7,55.6,50.0,100,99,92,29.92,29.79,6,2,14,0.07
2013-5-24,63.7,57.7,50.4,63.7,57.6,50.4,100,100,97,29.81,29.63,7,3,12,0.88
2013-5-25,52.3,48.5,39.9,52.3,48.5,39.9,100,100,98,29.81,29.65,6,3,13,0.53
2013-5-26,60.2,48.7,39.7,47.1,42.4,39.7,100,80,57,30.02,29.61,6,3,16,0.39
2013-5-27,70.5,54.8,41.6,45.8,42.0,37.6,97,65,34,30.15,30.02,6,2,11,0.00
2013-5-28,65.9,54.3,43.2,51.4,46.8,39.2,100,78,38,30.23,30.15,5,1,8,0.00
2013-5-29,61.0,54.6,50.3,59.9,54.5,50.3,100,100,95,30.16,29.97,4,1,8,0.27
2013-5-30,86.2,72.7,55.0,69.9,63.5,55.0,100,75,46,30.03,29.97,3,0,10,0.00
2013-5-31,92.5,73.4,61.7,71.4,65.2,61.7,100,78,44,30.05,29.90,3,0,7,0.00
2013-6-1,89.8,72.6,62.9,71.9,65.4,60.9,99,79,52,29.94,29.82,5,0,10,0.00
2013-6-2,84.7,69.6,61.5,68.7,64.1,60.4,97,83,50,29.84,29.68,8,2,18,0.00
2013-6-3,68.1,63.8,59.8,65.7,60.9,52.7,100,91,65,29.82,29.72,5,1,8,0.04
2013-6-4,67.6,59.9,52.7,52.3,48.6,46.1,82,67,46,30.04,29.79,5,2,10,0.00
2013-6-5,66.2,57.7,49.5,54.6,51.6,47.9,99,81,52,30.14,30.06,6,2,10,0.00
2013-6-6,66.0,57.5,54.3,56.6,54.2,52.4,98,89,61,30.16,30.10,5,1,10,0.00
2013-6-7,55.9,53.7,51.5,54.9,53.3,51.5,100,99,93,30.11,29.84,5,2,11,0.92
2013-6-8,73.9,59.9,51.8,65.7,57.1,51.8,100,91,73,29.96,29.60,5,3,12,0.81
2013-6-9,76.0,63.7,56.1,61.4,58.6,55.7,100,85,54,30.12,29.98,3,1,6,0.00
2013-6-10,65.8,61.1,54.5,58.5,56.9,54.5,100,86,72,30.20,30.04,4,2,10,0.12
2013-6-11,56.7,54.9,53.6,56.2,54.8,53.6,100,100,96,29.99,29.57,6,3,17,0.80
2013-6-12,65.1,60.4,54.8,61.2,57.8,54.8,100,91,79,29.78,29.54,4,2,10,0.01
2013-6-13,67.5,57.3,52.2,58.2,55.4,52.2,100,94,64,29.79,29.71,4,1,9,0.13
2013-6-14,69.7,59.3,52.3,61.8,56.8,52.3,100,92,71,29.75,29.66,5,1,9,0.42
2013-6-15,77.9,64.9,53.5,57.2,53.3,46.7,100,70,37,29.91,29.75,3,1,8,0.00
2013-6-16,71.5,63.3,52.9,62.0,58.0,52.9,100,83,64,29.90,29.69,4,1,9,0.00
2013-6-17,84.2,66.5,58.8,65.7,61.3,58.5,100,85,47,29.88,29.73,6,1,17,0.88
2013-6-18,68.5,60.6,57.0,62.6,59.0,56.0,100,94,75,29.95,29.86,4,0,9,0.01
2013-6-19,70.3,59.1,54.8,57.2,55.5,52.4,100,89,57,30.00,29.90,6,1,11,0.00
2013-6-20,69.0,62.4,51.4,64.8,56.7,50.8,100,82,61,30.23,30.18,5,2,9,0.00
2013-6-21,72.6,60.0,57.1,63.7,58.0,56.8,99,93,72,30.21,30.18,3,0,5,0.00
2013-6-22,81.2,69.0,64.1,72.1,64.4,61.5,100,85,71,30.17,30.12,4,2,7,0.00
2013-6-23,75.9,71.1,64.3,70.1,66.5,61.4,97,85,75,30.12,29.94,4,2,8,0.00
2013-6-24,87.8,73.1,65.0,87.8,70.1,64.0,98,86,69,29.98,29.85,4,1,8,0.00
2013-6-25,91.7,86.3,74.8,91.5,71.9,72.3,80,56,66,29.85,29.72,0,0,5,0.01
2013-6-26,86.1,72.0,61.2,86.1,71.2,61.2,100,97,86,29.87,29.73,3,0,10,0.50
2013-6-27,72.7,60.6,43.5,64.7,60.0,43.4,100,99,99,29.88,29.83,2,0,5,0.01
2013-6-28,67.9,64.7,55.8,-99.9,0.0,200.0,0,0,100,0.00,40.00,5,2,8,0.00
2013-6-29,74.7,68.4,62.4,71.9,31.0,66.5,100,42,83,0.00,40.00,7,2,14,0.00
2013-6-30,78.4,71.4,65.1,76.2,70.5,65.1,100,97,87,0.00,40.00,6,2,11,0.00
2013-7-1,71.4,67.4,64.7,70.7,67.4,64.7,100,100,97,0.00,40.00,4,1,6,0.76
2013-7-2,69.9,62.2,57.1,69.9,62.2,57.1,100,100,100,0.00,40.00,4,1,9,0.07
2013-7-3,72.1,62.5,57.3,72.1,62.3,57.3,100,99,91,0.00,40.00,4,1,7,0.00
2013-7-4,88.6,76.9,70.6,80.5,74.2,70.6,100,92,72,0.00,40.00,4,0,7,0.00
2013-7-5,87.9,79.4,73.2,79.4,75.8,72.7,100,88,71,0.00,40.00,4,0,8,0.00
2013-7-6,91.5,80.2,66.3,78.7,74.6,50.1,100,83,55,29.99,29.76,2,0,9,0.00
2013-7-7,88.8,76.0,68.3,75.8,71.2,67.8,100,86,61,29.94,29.61,1,0,5,0.04
2013-7-8,78.8,70.6,63.4,75.3,69.1,63.4,100,95,76,30.33,29.60,4,0,10,0.04
2013-7-9,71.3,66.9,63.6,69.4,65.8,63.6,100,96,84,30.31,29.86,4,1,9,0.00
2013-7-10,76.0,69.8,65.4,74.1,69.3,65.4,100,98,92,29.94,28.85,4,1,7,0.08
2013-7-11,80.9,72.7,67.8,77.8,67.3,52.7,100,85,55,29.40,28.76,3,0,6,0.05
2013-7-12,76.9,69.1,62.9,67.7,63.8,60.4,100,84,59,30.35,29.40,5,1,14,0.00
2013-7-13,75.2,67.8,61.6,68.2,64.0,60.5,100,88,63,30.72,30.34,4,1,7,0.00
2013-7-14,84.8,73.5,65.7,77.9,71.6,65.7,100,94,73,30.63,30.29,5,1,7,0.00
2013-7-15,91.2,78.8,68.1,76.5,71.4,68.1,100,80,51,30.28,29.90,5,2,8,0.00
2013-7-16,94.0,80.0,71.6,77.1,70.0,66.4,86,72,49,30.18,29.93,4,1,7,0.00
2013-7-17,86.8,77.4,70.6,74.5,70.5,67.3,91,79,64,30.19,29.49,7,2,11,0.21
2013-7-18,86.3,78.1,72.6,76.8,72.1,69.5,92,82,65,29.65,29.38,5,1,8,0.00
2013-7-19,94.4,83.8,68.1,82.5,76.6,54.2,100,80,58,29.20,29.05,4,1,11,0.00
2013-7-20,90.4,80.6,72.4,78.9,72.9,68.5,92,77,62,0.00,40.00,4,1,8,0.00
2013-7-21,75.9,70.3,65.5,68.8,66.0,60.0,100,87,61,0.00,40.00,5,2,10,0.00
2013-7-22,77.6,68.4,65.3,71.7,67.6,65.3,100,97,77,0.00,40.00,5,1,9,0.00
2013-7-23,69.3,67.0,65.1,69.3,67.0,65.1,100,100,100,0.00,40.00,4,1,8,1.47
2013-7-24,82.0,71.1,62.8,76.3,68.1,60.3,100,90,76,0.00,40.00,4,1,8,0.00
2013-7-25,63.7,60.9,58.0,60.4,58.2,55.1,100,90,82,0.00,40.00,4,1,9,0.08
2013-7-26,70.5,65.0,60.5,69.9,64.8,60.5,100,99,95,0.00,40.00,4,1,8,0.06
2013-7-27,83.6,68.3,61.1,70.1,66.0,61.1,100,93,56,0.00,40.00,5,2,8,0.01
2013-7-28,68.8,65.4,63.1,68.8,65.4,63.1,100,100,100,0.00,40.00,4,1,8,0.02
2013-7-29,70.7,65.4,63.0,70.5,65.4,63.0,100,100,98,0.00,40.00,4,1,8,0.01
2013-7-30,80.8,69.8,61.7,69.7,64.4,60.4,100,85,52,0.00,40.00,2,0,7,0.01
2013-7-31,75.8,66.0,59.3,67.3,63.0,59.3,100,91,67,0.00,40.00,6,1,9,0.00
2013-8-1,74.7,68.3,60.2,70.5,67.0,60.2,100,95,84,0.00,40.00,6,2,10,0.02
2013-8-2,76.4,69.7,63.8,73.0,66.4,61.9,100,90,67,0.00,40.00,6,1,11,0.14
2013-8-3,78.1,68.8,61.5,68.4,63.5,61.5,100,84,62,0.00,40.00,3,1,7,0.00
2013-8-4,77.9,67.3,59.1,67.1,61.7,57.6,100,83,61,0.00,40.00,1,0,5,0.00
2013-8-5,74.3,63.9,56.5,58.3,53.5,48.6,100,70,45,0.00,40.00,5,2,10,0.00
2013-8-6,73.5,62.7,51.4,64.2,58.2,48.9,100,86,62,0.00,40.00,4,1,7,0.00
2013-8-7,73.2,64.2,54.3,68.0,61.6,54.3,100,91,76,0.00,40.00,6,2,12,0.00
2013-8-8,77.9,68.6,61.3,73.1,67.1,60.0,100,95,82,0.00,40.00,5,2,10,0.00
2013-8-9,70.1,67.0,64.4,70.1,67.0,64.4,100,100,100,0.00,40.00,8,2,16,1.29
2013-8-10,81.8,70.3,60.0,70.4,64.4,56.2,100,83,50,0.00,40.00,4,1,10,0.01
2013-8-11,78.5,62.8,53.9,64.0,59.6,53.9,100,90,58,0.00,40.00,4,1,7,0.00
2013-8-12,80.9,66.9,57.0,66.0,61.9,57.0,100,85,55,0.00,40.00,3,1,7,0.00
2013-8-13,68.3,64.1,60.7,68.3,64.1,60.7,100,100,99,0.00,40.00,3,1,7,0.00
2013-8-14,73.2,64.0,59.1,62.9,60.3,55.3,100,89,58,0.00,40.00,5,1,13,0.00
2013-8-15,77.2,59.4,53.6,60.2,56.0,53.6,100,90,50,0.00,40.00,3,0,8,0.00
2013-8-16,77.1,63.9,54.0,63.9,59.4,54.0,100,86,58,0.00,40.00,3,0,6,0.00
2013-8-17,75.7,64.0,56.1,65.2,60.6,56.1,100,89,65,0.00,40.00,4,1,12,0.00
2013-8-18,70.5,63.5,56.3,67.4,62.1,56.3,100,95,79,0.00,40.00,4,1,7,0.00
2013-8-19,81.2,69.6,59.2,70.3,65.0,59.2,100,86,63,0.00,40.00,3,1,7,0.00
2013-8-20,81.2,68.9,61.2,69.0,65.4,61.2,100,89,61,0.00,40.00,4,1,7,0.00
2013-8-21,77.7,68.6,61.5,70.3,66.3,61.5,100,92,73,0.00,40.00,4,1,7,0.00
2013-8-22,81.0,70.5,63.1,72.6,68.3,63.1,100,93,67,0.00,40.00,5,1,8,0.00
2013-8-23,80.1,69.3,61.0,71.3,63.9,54.1,100,83,53,0.00,40.00,4,1,8,0.00
2013-8-24,75.1,62.4,53.1,60.1,55.0,50.3,100,78,41,0.00,40.00,5,1,8,0.00
2013-8-25,74.5,62.5,52.8,63.3,58.4,52.8,100,88,54,0.00,40.00,4,1,7,0.00
2013-8-26,82.8,69.9,61.0,72.9,66.6,60.2,100,89,68,0.00,40.00,2,0,8,0.04
2013-8-27,82.3,70.6,63.6,72.8,68.1,63.6,100,93,67,0.00,40.00,5,1,9,0.00
2013-8-28,70.5,64.9,61.2,69.1,64.7,61.2,100,99,93,0.00,40.00,5,1,7,0.00
2013-8-29,65.2,63.5,61.4,64.7,63.3,61.4,100,99,91,0.00,40.00,5,2,13,0.03
2013-8-30,80.3,67.5,61.3,71.1,65.7,61.3,100,94,71,0.00,40.00,5,1,8,0.00
2013-8-31,77.3,69.7,65.6,74.5,69.4,65.6,100,99,87,0.00,40.00,4,1,7,0.00
2013-9-1,82.6,71.3,66.1,76.2,70.1,66.1,100,96,73,0.00,40.00,6,1,9,0.24
2013-9-2,70.2,67.7,65.2,70.2,67.7,65.2,100,100,100,0.00,40.00,5,1,8,2.05
2013-9-3,75.3,69.3,63.8,74.0,69.1,63.8,100,99,93,0.00,40.00,4,1,6,0.01
2013-9-4,80.4,68.3,59.9,66.6,62.4,59.9,100,83,57,0.00,40.00,4,1,11,0.00
2013-9-5,67.7,60.8,51.7,62.3,58.7,49.6,100,93,70,0.00,40.00,5,1,11,0.02
2013-9-6,70.5,57.0,45.8,55.3,50.0,45.8,100,80,46,0.00,40.00,5,1,10,0.00
2013-9-14,58.4,56.3,53.6,56.0,50.9,42.9,100,84,59,0.00,40.00,2,0,6,2.70
2013-9-15,72.1,58.4,49.0,57.4,53.7,39.6,100,86,55,0.00,40.00,4,1,7,0.00
2013-9-16,67.1,57.6,46.6,61.7,55.4,42.3,100,92,77,0.00,40.00,3,0,8,0.01
2013-9-17,61.2,52.5,39.5,52.7,47.5,39.5,100,84,59,0.00,40.00,4,1,8,0.00
2013-9-18,68.2,56.2,44.2,58.6,51.6,44.2,100,86,59,0.00,40.00,4,0,7,0.00
2013-9-19,70.9,58.1,48.3,59.1,54.4,48.3,100,89,55,0.00,40.00,4,1,7,0.00
2013-9-20,72.5,58.7,49.8,61.6,56.1,49.8,100,92,59,0.00,40.00,4,1,7,0.00
2013-9-21,67.2,59.1,51.2,65.1,58.9,51.2,100,99,89,0.00,40.00,7,2,12,0.00
2013-9-22,71.9,62.3,52.6,66.5,59.4,48.4,100,91,67,0.00,40.00,6,2,12,0.40
2013-9-23,62.8,52.7,44.9,51.5,47.2,44.0,99,82,61,0.00,40.00,4,2,11,0.00
2013-9-24,65.4,51.3,43.1,52.5,47.6,43.1,100,88,58,0.00,40.00,3,1,8,0.00
2013-9-25,60.9,52.5,44.3,54.5,50.4,44.3,100,93,74,0.00,40.00,4,1,8,0.00
2013-9-26,63.8,55.3,48.3,55.1,52.7,48.3,100,91,71,0.00,40.00,5,1,9,0.00
2013-9-27,67.6,57.7,51.6,59.2,54.4,51.6,100,89,59,0.00,40.00,4,1,9,0.00
2013-9-28,70.7,56.8,49.7,60.7,54.6,49.7,100,93,64,0.00,40.00,5,1,11,0.00
2013-9-29,62.5,53.2,47.9,58.2,52.3,47.9,100,97,80,0.00,40.00,5,1,8,0.00
2013-9-30,61.8,51.5,45.0,57.7,50.9,45.0,100,98,84,0.00,40.00,5,1,8,0.01
2013-10-1,62.9,52.3,47.2,57.9,51.6,47.2,100,98,80,0.00,40.00,0,0,0,0.00
2013-10-2,78.9,63.9,53.2,65.9,59.8,53.2,100,87,61,0.00,40.00,4,1,12,0.00
2013-10-3,75.2,62.2,54.4,61.0,58.1,54.4,100,88,55,0.00,40.00,3,0,6,0.00
2013-10-4,66.4,58.2,51.2,59.7,56.0,51.2,100,93,63,0.00,40.00,3,0,6,0.00
2013-10-5,62.6,58.4,56.3,58.2,57.1,55.6,100,95,81,0.00,40.00,4,0,9,0.00
2013-10-6,56.7,54.5,52.1,56.7,53.8,49.7,100,97,85,0.00,40.00,5,2,13,0.23
2013-10-7,67.8,61.2,55.8,67.8,61.0,51.4,100,100,68,0.00,40.00,8,4,18,0.13
2013-10-8,64.8,55.9,45.7,59.9,50.2,45.7,100,83,51,0.00,40.00,6,2,12,0.00
2013-10-9,60.0,48.7,41.0,51.3,46.3,41.0,100,92,67,0.00,40.00,5,0,8,0.00
2013-10-10,58.4,49.9,42.5,55.7,49.2,42.5,100,97,86,0.00,40.00,0,0,2,0.00
2013-10-11,65.0,54.2,46.8,57.8,52.4,46.8,100,94,72,0.00,40.00,1,0,2,0.00
2013-10-12,55.2,52.6,46.4,55.2,52.6,46.4,100,100,97,0.00,40.00,5,1,12,0.00
2013-10-13,57.9,47.9,43.3,55.1,47.1,43.3,100,97,76,0.00,40.00,5,0,9,0.00
2013-10-14,59.4,50.2,40.2,54.3,48.1,32.2,100,93,71,0.00,40.00,5,1,10,0.00
2013-10-15,60.6,55.7,53.0,58.0,55.0,53.0,100,97,87,0.00,40.00,4,1,8,0.00
2013-10-16,58.9,55.4,51.8,57.8,55.1,51.8,100,99,91,0.00,40.00,3,0,9,0.00
2013-10-17,74.2,60.3,53.8,62.2,56.8,53.8,100,89,63,0.00,40.00,3,0,8,0.00
2013-10-18,67.4,59.2,50.6,59.5,53.9,44.8,100,83,56,0.00,40.00,7,2,14,0.09
2013-10-19,64.7,53.9,42.8,56.3,49.1,42.3,100,84,55,0.00,40.00,5,2,12,0.00
2013-10-20,61.5,54.5,46.9,55.4,45.7,38.9,100,74,44,0.00,40.00,6,1,17,0.00
2013-10-21,60.2,50.5,39.7,54.7,47.1,39.7,100,88,60,0.00,40.00,0,0,6,0.00
2013-10-22,61.2,54.2,46.7,57.6,52.8,46.7,100,95,85,0.00,40.00,4,0,10,0.00
2013-10-23,52.9,48.3,39.1,42.6,40.8,38.4,100,76,58,0.00,40.00,2,1,6,0.00
2013-10-24,53.2,45.7,39.7,40.4,36.2,33.2,96,70,48,0.00,40.00,7,3,18,0.00
2013-10-25,49.4,41.7,34.7,38.0,34.5,29.8,100,77,50,0.00,40.00,7,3,14,0.00
2013-10-26,52.3,43.2,31.7,39.8,34.8,31.7,100,75,47,0.00,40.00,5,2,14,0.00
2013-10-27,55.5,47.2,39.4,45.5,39.7,29.4,100,76,53,0.00,40.00,6,3,12,0.06
2013-10-28,64.6,45.3,35.5,50.9,35.9,29.6,95,70,51,0.00,40.00,8,3,17,0.00
2013-10-29,53.0,37.4,28.3,32.4,30.0,25.0,100,78,42,30.07,30.07,6,2,9,0.00
2013-10-30,49.8,41.2,34.8,40.1,37.3,31.7,100,86,66,0.00,40.00,5,2,12,0.01
2013-10-31,59.1,44.7,32.7,59.1,44.7,32.7,100,100,96,0.00,40.00,6,2,14,0.08
2013-11-1,69.1,62.2,54.6,64.3,59.0,54.6,100,89,69,0.00,40.00,11,4,26,0.03
2013-11-2,63.7,53.1,45.7,54.8,49.3,45.7,100,88,54,0.00,40.00,4,1,10,0.01
2013-11-3,50.0,41.5,32.0,50.0,35.6,24.4,100,80,54,0.00,40.00,6,2,14,0.05
2013-11-4,42.4,33.7,28.2,30.0,24.4,20.0,96,70,45,0.00,40.00,6,2,11,0.00
2013-11-5,46.9,38.1,27.4,41.0,32.9,23.8,92,82,63,0.00,40.00,6,2,12,0.00
2013-11-6,55.3,48.4,39.8,51.3,45.7,37.6,98,90,77,0.00,40.00,7,3,14,0.00
2013-11-7,61.5,52.2,39.4,59.2,51.1,36.6,100,96,83,0.00,40.00,8,3,14,0.12
2013-11-8,45.6,39.6,34.2,37.1,32.3,28.8,90,75,58,0.00,40.00,8,3,21,0.00
2013-11-9,43.3,40.2,34.2,29.1,27.6,26.7,74,60,53,0.00,40.00,7,3,17,0.00
2013-11-10,48.3,44.8,39.2,46.2,42.5,38.5,100,91,82,0.00,40.00,5,2,11,0.06
2013-11-11,49.1,43.7,38.7,38.5,33.8,31.4,85,68,50,0.00,40.00,9,4,19,0.00
2013-11-12,46.6,35.7,28.2,39.2,26.5,18.8,93,69,61,0.00,40.00,8,4,21,0.01
2013-11-13,34.1,29.8,24.7,21.4,18.7,14.8,76,63,47,0.00,40.00,7,3,15,0.00
2013-11-14,49.6,38.6,28.7,35.5,28.2,19.5,85,66,52,0.00,40.00,6,2,12,0.00
2013-11-15,55.5,41.1,32.7,42.3,32.0,24.8,100,72,34,0.00,40.00,4,1,8,0.00
2013-11-16,44.1,37.4,32.9,42.5,35.2,31.9,100,92,69,0.00,40.00,3,1,5,0.00
2013-11-17,50.0,44.9,32.5,49.2,43.9,32.5,100,96,85,29.97,28.91,5,2,10,0.15
2013-11-18,62.0,53.7,47.3,55.7,45.5,33.8,95,75,49,28.87,27.60,8,3,17,0.20
2013-11-19,47.1,37.3,31.8,33.6,20.4,16.6,60,50,42,30.95,27.99,12,6,22,0.00
2013-11-20,40.0,33.1,28.3,21.3,16.6,13.0,72,51,33,31.98,30.95,6,3,14,0.00
2013-11-21,45.3,34.3,24.8,26.1,20.0,14.0,79,58,28,31.99,31.33,3,1,8,0.00
2013-11-22,41.4,38.9,34.4,38.8,34.5,24.7,94,84,58,31.33,29.40,2,0,5,0.05
2013-11-23,42.2,37.9,30.4,40.4,26.6,16.5,95,65,38,29.67,29.23,11,4,20,0.00
2013-11-24,31.3,24.4,19.1,19.3,7.0,0.3,66,47,37,30.49,29.18,14,8,30,0.00
2013-11-25,31.3,25.2,17.7,14.3,2.1,-6.4,49,37,21,31.22,30.49,10,4,21,0.00
2013-11-26,35.6,33.0,30.0,34.0,24.3,13.0,97,71,48,31.22,30.41,4,1,10,0.12
2013-11-27,55.2,47.4,35.2,53.9,45.6,31.1,96,93,63,30.39,27.34,21,7,33,1.44
2013-11-28,36.6,31.4,24.6,31.1,17.4,7.3,81,57,37,31.51,27.90,9,5,22,0.00
2013-11-29,31.2,25.0,19.2,12.3,9.0,5.2,69,51,34,31.99,31.49,7,3,11,0.00
2013-11-30,33.2,25.6,13.8,23.4,16.7,8.8,81,69,58,31.99,31.58,5,2,10,0.00
2013-12-1,37.0,34.8,31.6,35.9,31.4,23.5,96,87,69,31.57,30.16,6,2,13,0.18
2013-12-2,39.1,36.7,34.6,36.6,35.1,33.4,96,93,90,30.16,29.83,5,1,10,0.00
2013-12-3,45.4,37.7,32.0,37.7,34.5,29.1,96,88,66,29.86,29.55,5,0,8,0.00
2013-12-4,40.2,34.9,30.4,30.2,27.7,25.3,92,75,60,30.77,29.80,3,0,10,0.00
2013-12-5,46.1,39.0,28.9,44.3,36.7,27.2,96,91,81,30.88,29.79,5,0,8,0.03
2013-12-6,47.7,42.8,33.1,46.4,39.5,28.5,96,88,50,30.64,29.56,4,0,11,0.09
2013-12-7,37.3,33.0,28.3,31.8,24.4,14.8,95,72,51,31.58,30.35,7,0,12,0.18
2013-12-8,31.3,28.2,24.6,17.7,14.7,11.7,67,57,48,31.99,31.58,5,1,8,0.00
2013-12-9,40.0,33.7,28.9,38.8,29.6,16.7,96,85,59,31.80,29.63,9,4,20,0.22
2013-12-10,35.6,31.7,25.2,31.6,28.3,16.8,95,87,69,29.87,29.29,5,2,11,0.00
2013-12-11,33.0,27.1,20.9,20.1,17.4,15.6,83,67,51,30.66,29.88,5,1,12,0.00
2013-12-12,25.8,20.2,15.9,19.5,7.6,-11.2,82,59,22,30.96,30.21,9,1,14,0.00
2013-12-13,28.5,20.6,12.2,19.0,10.2,-1.6,72,64,53,31.47,29.90,6,2,12,0.00
2013-12-14,25.6,14.6,8.3,22.5,6.0,-3.3,90,69,49,31.99,30.99,8,4,16,0.00
2013-12-15,33.1,24.2,15.8,32.0,22.7,13.9,95,94,90,30.94,28.07,13,5,27,0.00
2013-12-16,24.0,20.9,12.4,22.5,16.9,3.9,94,85,64,30.77,29.03,8,2,18,0.04
2013-12-17,19.2,12.6,3.2,16.0,7.1,-1.9,93,78,63,31.07,29.48,7,2,12,0.00
2013-12-18,31.2,24.1,13.8,25.0,19.8,11.6,93,84,64,29.67,29.17,5,1,15,0.01
2013-12-19,38.0,31.5,23.0,28.0,23.7,19.0,85,73,57,29.80,29.40,5,2,11,0.06
2013-12-20,44.3,36.5,30.0,36.0,31.4,24.9,91,82,68,29.86,29.31,6,1,12,0.22
2013-12-21,48.8,40.1,34.1,42.4,36.4,22.5,96,87,46,29.41,29.15,4,1,6,0.01
2013-12-22,41.1,33.5,29.8,39.9,32.3,28.7,97,95,94,29.72,29.22,8,2,97,0.19
2013-12-23,33.7,32.1,30.0,32.8,31.2,29.2,97,96,94,29.88,29.51,28,0,126,0.38
2013-12-24,33.1,31.1,24.2,32.3,23.7,13.7,97,74,54,30.05,29.71,7,0,105,0.00
2013-12-25,23.8,17.6,10.1,14.6,5.8,-3.1,76,59,36,30.98,30.05,9,2,22,0.00
2013-12-26,33.5,24.2,17.4,31.6,19.9,9.9,94,84,58,30.87,29.77,22,0,109,0.00
2013-12-27,32.9,25.9,19.2,24.1,20.2,17.5,93,79,63,30.19,29.96,65,1,133,0.08
2013-12-28,41.9,34.0,24.3,29.5,25.7,19.4,84,71,58,30.05,29.46,38,1,142,0.04
2013-12-29,40.4,36.8,32.6,36.5,33.2,24.3,96,87,62,29.65,28.16,65,3,130,0.82
2013-12-30,39.6,30.7,15.0,33.7,23.9,3.5,95,76,56,30.03,28.27,7,1,66,0.01
2013-12-31,20.4,14.9,9.9,12.9,4.8,0.2,84,64,45,30.00,29.67,3,0,8,0.00
2014-1-1,25.7,20.6,16.8,13.5,9.1,-1.3,79,61,33,30.57,29.93,6,0,16,0.00
2014-1-2,18.8,7.3,-2.5,13.4,2.8,-10.3,90,82,55,30.54,29.36,11,6,19,0.00